sensor_id;sensor_type;location;lat;lon;timestamp;P1;durP1;ratioP1;P2;durP2;ratioP2
17741;SDS011;8993;51.822;-2.268;2022-12-20T00:01:07;4.40;;;0.40;;
17741;SDS011;8993;51.822;-2.268;2022-12-20T00:06:11;4.89;;;0.49;;
17741;SDS011;8993;51.822;-2.268;2022-12-20T00:11:15;2.57;;;0.35;;
17741;SDS011;8993;51.822;-2.268;2022-12-20T00:16:20;5.37;;;0.37;;
17741;SDS011;8993;51.822;-2.268;2022-12-20T00:21:25;4.60;;;0.39;;
17741;SDS011;8993;51.822;-2.268;2022-12-20T00:26:29;4.03;;;0.42;;
17741;SDS011;8993;51.822;-2.268;2022-12-20T00:31:33;3.80;;;0.40;;
17741;SDS011;8993;51.822;-2.268;2022-12-20T00:36:38;1.91;;;0.29;;
17741;SDS011;8993;51.822;-2.268;2022-12-20T00:41:41;0.41;;;0.10;;
17741;SDS011;8993;51.822;-2.268;2022-12-20T00:46:45;0.74;;;0.07;;
17741;SDS011;8993;51.822;-2.268;2022-12-20T00:51:50;0.86;;;0.13;;
17741;SDS011;8993;51.822;-2.268;2022-12-20T00:56:54;1.49;;;0.29;;
17741;SDS011;8993;51.822;-2.268;2022-12-20T01:01:58;1.32;;;0.35;;
17741;SDS011;8993;51.822;-2.268;2022-12-20T01:07:02;1.32;;;0.34;;
17741;SDS011;8993;51.822;-2.268;2022-12-20T01:12:08;4.32;;;0.75;;
17741;SDS011;8993;51.822;-2.268;2022-12-20T01:17:12;2.11;;;0.50;;
17741;SDS011;8993;51.822;-2.268;2022-12-20T01:22:19;1.00;;;0.36;;
17741;SDS011;8993;51.822;-2.268;2022-12-20T01:27:23;1.40;;;0.40;;
17741;SDS011;8993;51.822;-2.268;2022-12-20T01:32:29;0.81;;;0.10;;
17741;SDS011;8993;51.822;-2.268;2022-12-20T01:37:33;0.93;;;0.13;;
17741;SDS011;8993;51.822;-2.268;2022-12-20T01:42:37;0.46;;;0.34;;
17741;SDS011;8993;51.822;-2.268;2022-12-20T01:47:41;1.36;;;0.66;;
17741;SDS011;8993;51.822;-2.268;2022-12-20T01:52:45;1.94;;;0.70;;
17741;SDS011;8993;51.822;-2.268;2022-12-20T01:57:51;1.46;;;0.52;;
17741;SDS011;8993;51.822;-2.268;2022-12-20T02:02:54;1.34;;;0.57;;
17741;SDS011;8993;51.822;-2.268;2022-12-20T02:07:58;1.24;;;0.60;;
17741;SDS011;8993;51.822;-2.268;2022-12-20T02:13:04;1.74;;;0.59;;
17741;SDS011;8993;51.822;-2.268;2022-12-20T02:18:12;1.03;;;0.66;;
17741;SDS011;8993;51.822;-2.268;2022-12-20T02:23:15;1.32;;;0.66;;
17741;SDS011;8993;51.822;-2.268;2022-12-20T02:28:20;2.56;;;0.82;;
17741;SDS011;8993;51.822;-2.268;2022-12-20T02:33:20;1.75;;;0.77;;
17741;SDS011;8993;51.822;-2.268;2022-12-20T02:38:25;2.08;;;0.78;;
17741;SDS011;8993;51.822;-2.268;2022-12-20T02:43:28;3.06;;;0.83;;
17741;SDS011;8993;51.822;-2.268;2022-12-20T02:48:32;1.92;;;0.76;;
17741;SDS011;8993;51.822;-2.268;2022-12-20T02:53:36;2.68;;;1.36;;
17741;SDS011;8993;51.822;-2.268;2022-12-20T02:58:41;4.11;;;1.80;;
17741;SDS011;8993;51.822;-2.268;2022-12-20T03:03:47;4.25;;;1.47;;
17741;SDS011;8993;51.822;-2.268;2022-12-20T03:08:51;3.89;;;1.15;;
17741;SDS011;8993;51.822;-2.268;2022-12-20T03:13:55;2.29;;;0.95;;
17741;SDS011;8993;51.822;-2.268;2022-12-20T03:18:59;2.09;;;1.50;;
17741;SDS011;8993;51.822;-2.268;2022-12-20T03:24:04;135.51;;;127.18;;
17741;SDS011;8993;51.822;-2.268;2022-12-20T03:29:08;149.06;;;140.10;;
17741;SDS011;8993;51.822;-2.268;2022-12-20T03:34:12;143.45;;;134.78;;
17741;SDS011;8993;51.822;-2.268;2022-12-20T03:39:16;161.69;;;152.03;;
17741;SDS011;8993;51.822;-2.268;2022-12-20T03:44:20;118.61;;;111.54;;
17741;SDS011;8993;51.822;-2.268;2022-12-20T03:49:25;152.81;;;143.68;;
17741;SDS011;8993;51.822;-2.268;2022-12-20T03:54:29;143.48;;;134.76;;
17741;SDS011;8993;51.822;-2.268;2022-12-20T03:59:34;150.66;;;141.57;;
17741;SDS011;8993;51.822;-2.268;2022-12-20T04:04:38;118.41;;;111.09;;
17741;SDS011;8993;51.822;-2.268;2022-12-20T04:09:43;127.91;;;120.18;;
17741;SDS011;8993;51.822;-2.268;2022-12-20T04:14:48;128.34;;;120.58;;
17741;SDS011;8993;51.822;-2.268;2022-12-20T04:19:52;139.20;;;130.81;;
17741;SDS011;8993;51.822;-2.268;2022-12-20T04:24:56;148.12;;;139.04;;
17741;SDS011;8993;51.822;-2.268;2022-12-20T04:30:00;166.00;;;156.07;;
17741;SDS011;8993;51.822;-2.268;2022-12-20T04:35:04;179.52;;;169.08;;
17741;SDS011;8993;51.822;-2.268;2022-12-20T04:40:09;290.61;;;274.21;;
17741;SDS011;8993;51.822;-2.268;2022-12-20T04:45:12;402.67;;;371.39;;
17741;SDS011;8993;51.822;-2.268;2022-12-20T04:50:17;426.56;;;380.60;;
17741;SDS011;8993;51.822;-2.268;2022-12-20T04:55:21;490.86;;;391.11;;
17741;SDS011;8993;51.822;-2.268;2022-12-20T05:00:25;617.43;;;397.17;;
17741;SDS011;8993;51.822;-2.268;2022-12-20T05:05:30;767.81;;;409.28;;
17741;SDS011;8993;51.822;-2.268;2022-12-20T05:10:34;826.10;;;415.40;;
17741;SDS011;8993;51.822;-2.268;2022-12-20T05:15:38;863.54;;;419.19;;
17741;SDS011;8993;51.822;-2.268;2022-12-20T05:20:43;949.67;;;431.32;;
17741;SDS011;8993;51.822;-2.268;2022-12-20T05:25:48;851.98;;;414.59;;
17741;SDS011;8993;51.822;-2.268;2022-12-20T05:30:51;960.65;;;425.86;;
17741;SDS011;8993;51.822;-2.268;2022-12-20T05:35:55;954.06;;;419.48;;
17741;SDS011;8993;51.822;-2.268;2022-12-20T05:40:59;988.96;;;427.19;;
17741;SDS011;8993;51.822;-2.268;2022-12-20T05:46:04;1008.59;;;428.53;;
17741;SDS011;8993;51.822;-2.268;2022-12-20T05:51:08;982.12;;;419.07;;
17741;SDS011;8993;51.822;-2.268;2022-12-20T05:56:12;1026.33;;;425.44;;
17741;SDS011;8993;51.822;-2.268;2022-12-20T06:01:17;1027.38;;;419.85;;
17741;SDS011;8993;51.822;-2.268;2022-12-20T06:06:21;1067.94;;;424.86;;
17741;SDS011;8993;51.822;-2.268;2022-12-20T06:11:25;1062.14;;;424.83;;
17741;SDS011;8993;51.822;-2.268;2022-12-20T06:16:30;1071.03;;;424.87;;
17741;SDS011;8993;51.822;-2.268;2022-12-20T06:21:34;1069.27;;;424.89;;
17741;SDS011;8993;51.822;-2.268;2022-12-20T06:26:38;1057.91;;;418.92;;
17741;SDS011;8993;51.822;-2.268;2022-12-20T06:31:42;1044.08;;;412.82;;
17741;SDS011;8993;51.822;-2.268;2022-12-20T06:36:46;1025.90;;;414.49;;
17741;SDS011;8993;51.822;-2.268;2022-12-20T06:41:51;1017.63;;;412.94;;
17741;SDS011;8993;51.822;-2.268;2022-12-20T06:46:55;1014.30;;;410.56;;
17741;SDS011;8993;51.822;-2.268;2022-12-20T06:56:59;965.09;;;401.73;;
17741;SDS011;8993;51.822;-2.268;2022-12-20T07:02:04;997.69;;;406.27;;
17741;SDS011;8993;51.822;-2.268;2022-12-20T07:07:08;995.44;;;404.58;;
17741;SDS011;8993;51.822;-2.268;2022-12-20T07:12:12;1000.59;;;401.84;;
17741;SDS011;8993;51.822;-2.268;2022-12-20T07:17:16;989.93;;;398.01;;
17741;SDS011;8993;51.822;-2.268;2022-12-20T07:22:20;977.38;;;394.86;;
17741;SDS011;8993;51.822;-2.268;2022-12-20T07:27:24;968.36;;;393.59;;
17741;SDS011;8993;51.822;-2.268;2022-12-20T07:32:29;971.95;;;395.10;;
17741;SDS011;8993;51.822;-2.268;2022-12-20T07:37:33;984.11;;;395.26;;
17741;SDS011;8993;51.822;-2.268;2022-12-20T07:42:39;955.25;;;393.50;;
17741;SDS011;8993;51.822;-2.268;2022-12-20T07:47:43;976.80;;;395.66;;
17741;SDS011;8993;51.822;-2.268;2022-12-20T07:52:47;996.75;;;396.60;;
17741;SDS011;8993;51.822;-2.268;2022-12-20T07:57:52;996.86;;;400.23;;
17741;SDS011;8993;51.822;-2.268;2022-12-20T08:02:57;976.54;;;394.75;;
17741;SDS011;8993;51.822;-2.268;2022-12-20T08:08:00;967.48;;;395.56;;
17741;SDS011;8993;51.822;-2.268;2022-12-20T08:13:04;975.83;;;397.38;;
17741;SDS011;8993;51.822;-2.268;2022-12-20T08:18:08;999.47;;;402.78;;
17741;SDS011;8993;51.822;-2.268;2022-12-20T08:23:12;1108.90;;;412.96;;
17741;SDS011;8993;51.822;-2.268;2022-12-20T08:28:17;1117.92;;;415.09;;
17741;SDS011;8993;51.822;-2.268;2022-12-20T08:33:22;1123.16;;;414.39;;
17741;SDS011;8993;51.822;-2.268;2022-12-20T08:38:27;1135.12;;;413.26;;
17741;SDS011;8993;51.822;-2.268;2022-12-20T08:43:31;1014.36;;;398.73;;
17741;SDS011;8993;51.822;-2.268;2022-12-20T08:48:35;1109.74;;;410.65;;
17741;SDS011;8993;51.822;-2.268;2022-12-20T08:53:39;1128.33;;;414.47;;
17741;SDS011;8993;51.822;-2.268;2022-12-20T08:58:43;1063.59;;;403.88;;
17741;SDS011;8993;51.822;-2.268;2022-12-20T09:03:47;1089.85;;;406.37;;
17741;SDS011;8993;51.822;-2.268;2022-12-20T09:08:52;1107.44;;;411.03;;
17741;SDS011;8993;51.822;-2.268;2022-12-20T09:13:56;1110.40;;;411.54;;
17741;SDS011;8993;51.822;-2.268;2022-12-20T09:19:01;1115.57;;;415.65;;
17741;SDS011;8993;51.822;-2.268;2022-12-20T09:24:05;1115.86;;;414.75;;
17741;SDS011;8993;51.822;-2.268;2022-12-20T09:29:09;1119.37;;;420.01;;
17741;SDS011;8993;51.822;-2.268;2022-12-20T09:34:14;1111.38;;;414.38;;
17741;SDS011;8993;51.822;-2.268;2022-12-20T09:39:18;1121.00;;;419.56;;
17741;SDS011;8993;51.822;-2.268;2022-12-20T09:44:23;1131.23;;;422.37;;
17741;SDS011;8993;51.822;-2.268;2022-12-20T09:49:27;1136.12;;;427.47;;
17741;SDS011;8993;51.822;-2.268;2022-12-20T09:54:32;1122.24;;;429.67;;
17741;SDS011;8993;51.822;-2.268;2022-12-20T09:59:35;1117.87;;;432.84;;
17741;SDS011;8993;51.822;-2.268;2022-12-20T10:04:39;1134.04;;;435.53;;
17741;SDS011;8993;51.822;-2.268;2022-12-20T10:09:48;1123.53;;;432.99;;
17741;SDS011;8993;51.822;-2.268;2022-12-20T10:14:52;1113.72;;;433.51;;
17741;SDS011;8993;51.822;-2.268;2022-12-20T10:19:57;1100.38;;;433.43;;
17741;SDS011;8993;51.822;-2.268;2022-12-20T10:24:58;1075.35;;;433.68;;
17741;SDS011;8993;51.822;-2.268;2022-12-20T10:30:00;1047.89;;;429.34;;
17741;SDS011;8993;51.822;-2.268;2022-12-20T10:35:14;1044.95;;;431.34;;
17741;SDS011;8993;51.822;-2.268;2022-12-20T10:40:10;1053.35;;;435.37;;
17741;SDS011;8993;51.822;-2.268;2022-12-20T10:45:23;1064.74;;;439.94;;
17741;SDS011;8993;51.822;-2.268;2022-12-20T10:50:19;977.13;;;429.72;;
17741;SDS011;8993;51.822;-2.268;2022-12-20T11:00:28;982.83;;;438.98;;
17741;SDS011;8993;51.822;-2.268;2022-12-20T11:05:31;995.46;;;444.66;;
17741;SDS011;8993;51.822;-2.268;2022-12-20T11:10:35;998.69;;;450.48;;
17741;SDS011;8993;51.822;-2.268;2022-12-20T11:15:41;984.34;;;442.99;;
17741;SDS011;8993;51.822;-2.268;2022-12-20T11:20:46;928.90;;;442.91;;
17741;SDS011;8993;51.822;-2.268;2022-12-20T11:25:53;918.69;;;438.28;;
17741;SDS011;8993;51.822;-2.268;2022-12-20T11:30:57;1029.60;;;455.35;;
17741;SDS011;8993;51.822;-2.268;2022-12-20T11:35:59;1037.02;;;456.21;;
17741;SDS011;8993;51.822;-2.268;2022-12-20T11:41:07;1049.99;;;463.35;;
17741;SDS011;8993;51.822;-2.268;2022-12-20T11:46:13;1063.07;;;463.65;;
17741;SDS011;8993;51.822;-2.268;2022-12-20T11:51:12;1068.00;;;461.28;;
17741;SDS011;8993;51.822;-2.268;2022-12-20T11:56:16;1068.15;;;467.09;;
17741;SDS011;8993;51.822;-2.268;2022-12-20T12:06:26;1053.71;;;465.77;;
17741;SDS011;8993;51.822;-2.268;2022-12-20T12:11:30;1048.13;;;463.91;;
17741;SDS011;8993;51.822;-2.268;2022-12-20T12:16:33;1022.65;;;457.81;;
17741;SDS011;8993;51.822;-2.268;2022-12-20T12:21:38;1034.00;;;462.83;;
17741;SDS011;8993;51.822;-2.268;2022-12-20T12:26:41;1044.21;;;467.79;;
17741;SDS011;8993;51.822;-2.268;2022-12-20T12:31:48;1039.10;;;468.09;;
17741;SDS011;8993;51.822;-2.268;2022-12-20T12:36:55;1019.99;;;467.64;;
17741;SDS011;8993;51.822;-2.268;2022-12-20T12:42:02;1011.88;;;469.24;;
17741;SDS011;8993;51.822;-2.268;2022-12-20T12:46:59;1011.83;;;467.33;;
17741;SDS011;8993;51.822;-2.268;2022-12-20T12:52:06;1022.10;;;470.11;;
17741;SDS011;8993;51.822;-2.268;2022-12-20T12:57:09;1024.25;;;471.96;;
17741;SDS011;8993;51.822;-2.268;2022-12-20T13:03:15;1024.09;;;472.64;;
17741;SDS011;8993;51.822;-2.268;2022-12-20T13:07:24;1018.75;;;464.99;;
17741;SDS011;8993;51.822;-2.268;2022-12-20T13:12:46;1024.42;;;464.38;;
17741;SDS011;8993;51.822;-2.268;2022-12-20T13:17:46;1024.04;;;468.63;;
17741;SDS011;8993;51.822;-2.268;2022-12-20T13:22:29;1025.23;;;473.61;;
17741;SDS011;8993;51.822;-2.268;2022-12-20T13:27:34;1031.64;;;474.32;;
17741;SDS011;8993;51.822;-2.268;2022-12-20T13:32:53;1040.11;;;480.24;;
17741;SDS011;8993;51.822;-2.268;2022-12-20T13:37:50;1033.32;;;481.24;;
17741;SDS011;8993;51.822;-2.268;2022-12-20T13:42:45;1032.48;;;477.61;;
17741;SDS011;8993;51.822;-2.268;2022-12-20T13:47:51;1038.68;;;479.29;;
17741;SDS011;8993;51.822;-2.268;2022-12-20T13:52:54;1030.11;;;480.35;;
17741;SDS011;8993;51.822;-2.268;2022-12-20T13:58:02;1021.37;;;471.25;;
17741;SDS011;8993;51.822;-2.268;2022-12-20T14:03:03;1010.12;;;469.15;;
17741;SDS011;8993;51.822;-2.268;2022-12-20T14:08:08;1017.96;;;468.07;;
17741;SDS011;8993;51.822;-2.268;2022-12-20T14:13:16;1032.54;;;465.96;;
17741;SDS011;8993;51.822;-2.268;2022-12-20T14:18:17;1014.33;;;466.42;;
17741;SDS011;8993;51.822;-2.268;2022-12-20T14:23:21;1004.27;;;460.61;;
17741;SDS011;8993;51.822;-2.268;2022-12-20T14:28:27;1014.77;;;474.50;;
17741;SDS011;8993;51.822;-2.268;2022-12-20T14:33:30;1002.47;;;464.83;;
17741;SDS011;8993;51.822;-2.268;2022-12-20T14:38:33;1006.43;;;464.75;;
17741;SDS011;8993;51.822;-2.268;2022-12-20T14:43:37;1054.34;;;468.61;;
17741;SDS011;8993;51.822;-2.268;2022-12-20T14:48:41;1069.53;;;470.21;;
17741;SDS011;8993;51.822;-2.268;2022-12-20T14:53:45;1065.10;;;459.35;;
17741;SDS011;8993;51.822;-2.268;2022-12-20T14:59:00;1080.08;;;467.93;;
17741;SDS011;8993;51.822;-2.268;2022-12-20T15:03:55;1093.40;;;465.72;;
17741;SDS011;8993;51.822;-2.268;2022-12-20T15:09:00;1093.34;;;458.76;;
17741;SDS011;8993;51.822;-2.268;2022-12-20T15:14:09;1085.21;;;458.84;;
17741;SDS011;8993;51.822;-2.268;2022-12-20T15:19:09;1100.42;;;459.19;;
17741;SDS011;8993;51.822;-2.268;2022-12-20T15:24:15;1104.58;;;459.95;;
17741;SDS011;8993;51.822;-2.268;2022-12-20T15:29:19;1099.91;;;451.28;;
17741;SDS011;8993;51.822;-2.268;2022-12-20T15:34:26;1097.52;;;454.59;;
17741;SDS011;8993;51.822;-2.268;2022-12-20T15:39:29;1108.76;;;450.36;;
17741;SDS011;8993;51.822;-2.268;2022-12-20T15:44:34;1113.67;;;454.24;;
17741;SDS011;8993;51.822;-2.268;2022-12-20T15:49:38;1121.65;;;452.22;;
17741;SDS011;8993;51.822;-2.268;2022-12-20T15:54:42;1121.07;;;453.16;;
17741;SDS011;8993;51.822;-2.268;2022-12-20T15:59:47;1080.31;;;449.25;;
17741;SDS011;8993;51.822;-2.268;2022-12-20T16:04:52;1152.22;;;452.13;;
17741;SDS011;8993;51.822;-2.268;2022-12-20T16:09:57;1169.67;;;453.87;;
17741;SDS011;8993;51.822;-2.268;2022-12-20T16:15:01;1229.12;;;466.86;;
17741;SDS011;8993;51.822;-2.268;2022-12-20T16:20:05;1265.68;;;472.41;;
17741;SDS011;8993;51.822;-2.268;2022-12-20T16:25:13;1289.77;;;474.60;;
17741;SDS011;8993;51.822;-2.268;2022-12-20T16:30:14;1289.11;;;474.95;;
17741;SDS011;8993;51.822;-2.268;2022-12-20T16:35:27;1282.06;;;472.80;;
17741;SDS011;8993;51.822;-2.268;2022-12-20T16:40:23;1275.38;;;469.77;;
17741;SDS011;8993;51.822;-2.268;2022-12-20T16:45:29;1269.56;;;463.65;;
17741;SDS011;8993;51.822;-2.268;2022-12-20T16:50:32;1275.64;;;464.81;;
17741;SDS011;8993;51.822;-2.268;2022-12-20T16:55:39;1253.43;;;460.00;;
17741;SDS011;8993;51.822;-2.268;2022-12-20T17:00:43;1248.31;;;459.09;;
17741;SDS011;8993;51.822;-2.268;2022-12-20T17:05:48;1248.40;;;454.96;;
17741;SDS011;8993;51.822;-2.268;2022-12-20T17:10:52;1247.63;;;456.40;;
17741;SDS011;8993;51.822;-2.268;2022-12-20T17:15:57;1247.74;;;456.62;;
17741;SDS011;8993;51.822;-2.268;2022-12-20T17:21:02;1244.79;;;455.64;;
17741;SDS011;8993;51.822;-2.268;2022-12-20T17:26:06;1234.66;;;447.91;;
17741;SDS011;8993;51.822;-2.268;2022-12-20T17:31:15;1230.83;;;444.74;;
17741;SDS011;8993;51.822;-2.268;2022-12-20T17:36:14;1233.04;;;447.64;;
17741;SDS011;8993;51.822;-2.268;2022-12-20T17:41:21;1237.14;;;451.48;;
17741;SDS011;8993;51.822;-2.268;2022-12-20T17:46:23;1245.09;;;454.26;;
17741;SDS011;8993;51.822;-2.268;2022-12-20T17:51:29;1244.82;;;453.77;;
17741;SDS011;8993;51.822;-2.268;2022-12-20T17:56:33;1239.49;;;454.12;;
17741;SDS011;8993;51.822;-2.268;2022-12-20T18:01:37;1241.82;;;456.62;;
17741;SDS011;8993;51.822;-2.268;2022-12-20T18:06:42;1240.82;;;455.81;;
17741;SDS011;8993;51.822;-2.268;2022-12-20T18:11:47;1246.64;;;459.38;;
17741;SDS011;8993;51.822;-2.268;2022-12-20T18:16:50;1241.76;;;452.41;;
17741;SDS011;8993;51.822;-2.268;2022-12-20T18:26:59;84.83;;;77.65;;
17741;SDS011;8993;51.822;-2.268;2022-12-20T18:32:05;33.36;;;13.26;;
17741;SDS011;8993;51.822;-2.268;2022-12-20T18:37:09;775.35;;;362.13;;
17741;SDS011;8993;51.822;-2.268;2022-12-20T18:42:15;967.28;;;394.97;;
17741;SDS011;8993;51.822;-2.268;2022-12-20T18:47:20;909.58;;;397.52;;
17741;SDS011;8993;51.822;-2.268;2022-12-20T18:52:25;936.07;;;390.85;;
17741;SDS011;8993;51.822;-2.268;2022-12-20T18:57:29;954.19;;;574.73;;
17741;SDS011;8993;51.822;-2.268;2022-12-20T19:02:35;878.17;;;396.73;;
17741;SDS011;8993;51.822;-2.268;2022-12-20T19:07:39;785.15;;;342.37;;
17741;SDS011;8993;51.822;-2.268;2022-12-20T19:12:45;959.89;;;377.86;;
17741;SDS011;8993;51.822;-2.268;2022-12-20T19:17:49;947.68;;;385.70;;
17741;SDS011;8993;51.822;-2.268;2022-12-20T19:22:53;1030.29;;;398.32;;
17741;SDS011;8993;51.822;-2.268;2022-12-20T19:27:58;998.59;;;399.77;;
17741;SDS011;8993;51.822;-2.268;2022-12-20T19:33:02;1116.45;;;408.29;;
17741;SDS011;8993;51.822;-2.268;2022-12-20T19:38:06;1125.13;;;411.68;;
17741;SDS011;8993;51.822;-2.268;2022-12-20T19:43:13;1164.32;;;418.90;;
17741;SDS011;8993;51.822;-2.268;2022-12-20T19:48:17;1124.70;;;407.57;;
17741;SDS011;8993;51.822;-2.268;2022-12-20T19:53:22;1174.40;;;415.85;;
17741;SDS011;8993;51.822;-2.268;2022-12-20T19:58:26;1164.33;;;413.23;;
17741;SDS011;8993;51.822;-2.268;2022-12-20T20:03:31;1157.41;;;412.81;;
17741;SDS011;8993;51.822;-2.268;2022-12-20T20:08:35;1134.31;;;406.75;;
17741;SDS011;8993;51.822;-2.268;2022-12-20T20:13:40;1127.09;;;400.32;;
17741;SDS011;8993;51.822;-2.268;2022-12-20T20:18:45;1130.03;;;402.11;;
17741;SDS011;8993;51.822;-2.268;2022-12-20T20:23:49;1134.11;;;404.15;;
17741;SDS011;8993;51.822;-2.268;2022-12-20T20:28:53;1094.09;;;399.71;;
17741;SDS011;8993;51.822;-2.268;2022-12-20T20:33:57;1066.93;;;394.16;;
17741;SDS011;8993;51.822;-2.268;2022-12-20T20:39:02;1056.24;;;394.52;;
17741;SDS011;8993;51.822;-2.268;2022-12-20T20:44:06;1049.58;;;393.51;;
17741;SDS011;8993;51.822;-2.268;2022-12-20T20:49:10;1133.33;;;405.63;;
17741;SDS011;8993;51.822;-2.268;2022-12-20T20:54:14;1127.45;;;403.96;;
17741;SDS011;8993;51.822;-2.268;2022-12-20T20:59:19;1108.35;;;400.61;;
17741;SDS011;8993;51.822;-2.268;2022-12-20T21:04:23;982.44;;;387.02;;
17741;SDS011;8993;51.822;-2.268;2022-12-20T21:09:28;948.66;;;377.56;;
17741;SDS011;8993;51.822;-2.268;2022-12-20T21:14:33;932.19;;;378.42;;
17741;SDS011;8993;51.822;-2.268;2022-12-20T21:19:37;946.06;;;379.79;;
17741;SDS011;8993;51.822;-2.268;2022-12-20T21:24:43;1071.67;;;396.14;;
17741;SDS011;8993;51.822;-2.268;2022-12-20T21:29:47;968.71;;;381.18;;
17741;SDS011;8993;51.822;-2.268;2022-12-20T21:34:53;821.58;;;363.01;;
17741;SDS011;8993;51.822;-2.268;2022-12-20T21:39:58;937.58;;;377.89;;
17741;SDS011;8993;51.822;-2.268;2022-12-20T21:45:03;1175.73;;;421.67;;
17741;SDS011;8993;51.822;-2.268;2022-12-20T21:50:07;948.61;;;382.15;;
17741;SDS011;8993;51.822;-2.268;2022-12-20T21:55:11;906.71;;;371.85;;
17741;SDS011;8993;51.822;-2.268;2022-12-20T22:00:15;876.75;;;373.67;;
17741;SDS011;8993;51.822;-2.268;2022-12-20T22:05:20;939.31;;;382.41;;
17741;SDS011;8993;51.822;-2.268;2022-12-20T22:10:24;754.83;;;350.80;;
17741;SDS011;8993;51.822;-2.268;2022-12-20T22:15:30;1218.79;;;435.50;;
17741;SDS011;8993;51.822;-2.268;2022-12-20T22:20:34;948.52;;;385.72;;
17741;SDS011;8993;51.822;-2.268;2022-12-20T22:25:38;860.23;;;372.61;;
17741;SDS011;8993;51.822;-2.268;2022-12-20T22:30:42;1141.30;;;416.30;;
17741;SDS011;8993;51.822;-2.268;2022-12-20T22:35:47;1065.96;;;411.06;;
17741;SDS011;8993;51.822;-2.268;2022-12-20T22:40:51;895.29;;;381.91;;
17741;SDS011;8993;51.822;-2.268;2022-12-20T22:45:55;820.66;;;367.35;;
17741;SDS011;8993;51.822;-2.268;2022-12-20T22:51:00;805.16;;;367.44;;
17741;SDS011;8993;51.822;-2.268;2022-12-20T22:56:04;1173.49;;;432.65;;
17741;SDS011;8993;51.822;-2.268;2022-12-20T23:01:09;1005.17;;;401.35;;
17741;SDS011;8993;51.822;-2.268;2022-12-20T23:06:13;965.80;;;396.32;;
17741;SDS011;8993;51.822;-2.268;2022-12-20T23:11:18;801.56;;;376.76;;
17741;SDS011;8993;51.822;-2.268;2022-12-20T23:16:21;1033.62;;;403.59;;
17741;SDS011;8993;51.822;-2.268;2022-12-20T23:21:28;883.89;;;383.40;;
17741;SDS011;8993;51.822;-2.268;2022-12-20T23:26:32;1235.55;;;449.97;;
17741;SDS011;8993;51.822;-2.268;2022-12-20T23:31:36;1075.95;;;419.22;;
17741;SDS011;8993;51.822;-2.268;2022-12-20T23:36:41;865.64;;;386.75;;
17741;SDS011;8993;51.822;-2.268;2022-12-20T23:41:48;904.51;;;392.14;;
17741;SDS011;8993;51.822;-2.268;2022-12-20T23:46:52;882.91;;;387.00;;
17741;SDS011;8993;51.822;-2.268;2022-12-20T23:51:56;859.98;;;386.03;;
17741;SDS011;8993;51.822;-2.268;2022-12-20T23:57:00;1022.92;;;417.95;;
